sensor_id;sensor_type;location;lat;lon;timestamp;pressure;altitude;pressure_sealevel;temperature
40047;BMP280;31510;48.122;11.576;2022-09-09T00:00:18;95463.41;;;16.71
40047;BMP280;31510;48.122;11.576;2022-09-09T00:02:49;95459.47;;;16.67
40047;BMP280;31510;48.122;11.576;2022-09-09T00:05:26;95461.16;;;16.64
40047;BMP280;31510;48.122;11.576;2022-09-09T00:07:55;95456.25;;;16.63
40047;BMP280;31510;48.122;11.576;2022-09-09T00:10:28;95463.13;;;16.64
40047;BMP280;31510;48.122;11.576;2022-09-09T00:13:24;95456.25;;;16.63
40047;BMP280;31510;48.122;11.576;2022-09-09T00:21:17;95457.28;;;16.65
40047;BMP280;31510;48.122;11.576;2022-09-09T00:23:50;95461.41;;;16.66
40047;BMP280;31510;48.122;11.576;2022-09-09T00:29:09;95450.16;;;16.62
40047;BMP280;31510;48.122;11.576;2022-09-09T00:31:35;95445.47;;;16.57
40047;BMP280;31510;48.122;11.576;2022-09-09T00:34:13;95446.22;;;16.58
40047;BMP280;31510;48.122;11.576;2022-09-09T00:36:41;95451.13;;;16.59
40047;BMP280;31510;48.122;11.576;2022-09-09T00:39:15;95450.16;;;16.62
40047;BMP280;31510;48.122;11.576;2022-09-09T00:42:10;95457.50;;;16.62
40047;BMP280;31510;48.122;11.576;2022-09-09T00:44:37;95456.75;;;16.61
40047;BMP280;31510;48.122;11.576;2022-09-09T00:50:00;95459.69;;;16.58
40047;BMP280;31510;48.122;11.576;2022-09-09T00:55:54;95454.53;;;16.54
40047;BMP280;31510;48.122;11.576;2022-09-09T00:58:21;95455.00;;;16.53
40047;BMP280;31510;48.122;11.576;2022-09-09T01:00:51;95456.19;;;16.52
40047;BMP280;31510;48.122;11.576;2022-09-09T01:03:37;95455.47;;;16.51
40047;BMP280;31510;48.122;11.576;2022-09-09T01:06:16;95456.19;;;16.52
40047;BMP280;31510;48.122;11.576;2022-09-09T01:11:54;95462.34;;;16.52
40047;BMP280;31510;48.122;11.576;2022-09-09T01:17:07;95465.53;;;16.56
40047;BMP280;31510;48.122;11.576;2022-09-09T01:19:45;95463.09;;;16.58
40047;BMP280;31510;48.122;11.576;2022-09-09T01:22:26;95465.53;;;16.56
40047;BMP280;31510;48.122;11.576;2022-09-09T01:25:18;95457.19;;;16.49
40047;BMP280;31510;48.122;11.576;2022-09-09T01:27:47;95453.75;;;16.48
40047;BMP280;31510;48.122;11.576;2022-09-09T01:30:15;95456.69;;;16.50
40047;BMP280;31510;48.122;11.576;2022-09-09T01:35:29;95460.63;;;16.55
40047;BMP280;31510;48.122;11.576;2022-09-09T01:37:57;95457.47;;;16.56
40047;BMP280;31510;48.122;11.576;2022-09-09T01:40:23;95453.53;;;16.57
40047;BMP280;31510;48.122;11.576;2022-09-09T01:42:49;95458.91;;;16.57
40047;BMP280;31510;48.122;11.576;2022-09-09T01:45:15;95457.00;;;16.58
40047;BMP280;31510;48.122;11.576;2022-09-09T01:47:41;95458.44;;;16.59
40047;BMP280;31510;48.122;11.576;2022-09-09T01:50:08;95459.19;;;16.59
40047;BMP280;31510;48.122;11.576;2022-09-09T01:52:36;95452.34;;;16.58
40047;BMP280;31510;48.122;11.576;2022-09-09T01:55:02;95459.69;;;16.58
40047;BMP280;31510;48.122;11.576;2022-09-09T01:57:39;95457.22;;;16.54
40047;BMP280;31510;48.122;11.576;2022-09-09T02:00:09;95454.28;;;16.52
40047;BMP280;31510;48.122;11.576;2022-09-09T02:05:16;95454.97;;;16.47
40047;BMP280;31510;48.122;11.576;2022-09-09T02:08:03;95459.59;;;16.47
40047;BMP280;31510;48.122;11.576;2022-09-09T02:13:13;95448.59;;;16.50
40047;BMP280;31510;48.122;11.576;2022-09-09T02:18:12;95449.09;;;16.43
40047;BMP280;31510;48.122;11.576;2022-09-09T02:20:39;95448.06;;;16.41
40047;BMP280;31510;48.122;11.576;2022-09-09T02:23:06;95447.09;;;16.38
40047;BMP280;31510;48.122;11.576;2022-09-09T02:25:34;95431.16;;;16.35
40047;BMP280;31510;48.122;11.576;2022-09-09T02:28:01;95449.47;;;16.31
40047;BMP280;31510;48.122;11.576;2022-09-09T02:30:29;95439.22;;;16.30
40047;BMP280;31510;48.122;11.576;2022-09-09T02:32:58;95449.97;;;16.30
40047;BMP280;31510;48.122;11.576;2022-09-09T02:35:25;95443.13;;;16.34
40047;BMP280;31510;48.122;11.576;2022-09-09T02:37:53;95441.94;;;16.35
40047;BMP280;31510;48.122;11.576;2022-09-09T02:40:19;95437.06;;;16.39
40047;BMP280;31510;48.122;11.576;2022-09-09T02:42:47;95433.66;;;16.44
40047;BMP280;31510;48.122;11.576;2022-09-09T02:45:16;95439.78;;;16.44
40047;BMP280;31510;48.122;11.576;2022-09-09T02:50:32;95434.41;;;16.44
40047;BMP280;31510;48.122;11.576;2022-09-09T02:53:18;95440.50;;;16.45
40047;BMP280;31510;48.122;11.576;2022-09-09T02:55:59;95439.78;;;16.44
40047;BMP280;31510;48.122;11.576;2022-09-09T02:58:27;95436.13;;;16.47
40047;BMP280;31510;48.122;11.576;2022-09-09T03:00:52;95446.13;;;16.47
40047;BMP280;31510;48.122;11.576;2022-09-09T03:03:18;95435.88;;;16.45
40047;BMP280;31510;48.122;11.576;2022-09-09T03:05:45;95438.03;;;16.41
40047;BMP280;31510;48.122;11.576;2022-09-09T03:08:11;95429.25;;;16.41
40047;BMP280;31510;48.122;11.576;2022-09-09T03:10:38;95431.41;;;16.37
40047;BMP280;31510;48.122;11.576;2022-09-09T03:13:03;95435.78;;;16.35
40047;BMP280;31510;48.122;11.576;2022-09-09T03:15:32;95432.84;;;16.33
40047;BMP280;31510;48.122;11.576;2022-09-09T03:17:58;95435.75;;;16.29
40047;BMP280;31510;48.122;11.576;2022-09-09T03:20:25;95424.97;;;16.24
40047;BMP280;31510;48.122;11.576;2022-09-09T03:22:54;95437.63;;;16.18
40047;BMP280;31510;48.122;11.576;2022-09-09T03:25:20;95431.19;;;16.10
40047;BMP280;31510;48.122;11.576;2022-09-09T03:27:48;95431.72;;;16.08
40047;BMP280;31510;48.122;11.576;2022-09-09T03:30:14;95433.41;;;16.11
40047;BMP280;31510;48.122;11.576;2022-09-09T03:32:40;95428.81;;;16.12
40047;BMP280;31510;48.122;11.576;2022-09-09T03:35:06;95430.25;;;16.13
40047;BMP280;31510;48.122;11.576;2022-09-09T03:37:31;95421.72;;;16.14
40047;BMP280;31510;48.122;11.576;2022-09-09T03:39:57;95427.34;;;16.16
40047;BMP280;31510;48.122;11.576;2022-09-09T03:42:22;95422.44;;;16.15
40047;BMP280;31510;48.122;11.576;2022-09-09T03:44:47;95428.81;;;16.12
40047;BMP280;31510;48.122;11.576;2022-09-09T03:47:16;95423.34;;;16.06
40047;BMP280;31510;48.122;11.576;2022-09-09T03:49:41;95420.63;;;16.01
40047;BMP280;31510;48.122;11.576;2022-09-09T03:52:08;95427.47;;;15.97
40047;BMP280;31510;48.122;11.576;2022-09-09T03:54:33;95421.81;;;15.95
40047;BMP280;31510;48.122;11.576;2022-09-09T03:56:59;95423.06;;;15.99
40047;BMP280;31510;48.122;11.576;2022-09-09T03:59:24;95421.16;;;16.05
40047;BMP280;31510;48.122;11.576;2022-09-09T04:01:50;95418.53;;;16.10
40047;BMP280;31510;48.122;11.576;2022-09-09T04:04:16;95421.94;;;16.11
40047;BMP280;31510;48.122;11.576;2022-09-09T04:06:41;95415.84;;;16.16
40047;BMP280;31510;48.122;11.576;2022-09-09T04:09:06;95425.94;;;16.21
40047;BMP280;31510;48.122;11.576;2022-09-09T04:11:32;95425.72;;;16.24
40047;BMP280;31510;48.122;11.576;2022-09-09T04:13:57;95423.53;;;16.28
40047;BMP280;31510;48.122;11.576;2022-09-09T04:16:22;95413.28;;;16.32
40047;BMP280;31510;48.122;11.576;2022-09-09T04:18:48;95407.91;;;16.32
40047;BMP280;31510;48.122;11.576;2022-09-09T04:21:13;95415.75;;;16.36
40047;BMP280;31510;48.122;11.576;2022-09-09T04:23:40;95409.66;;;16.35
40047;BMP280;31510;48.122;11.576;2022-09-09T04:26:06;95410.13;;;16.34
40047;BMP280;31510;48.122;11.576;2022-09-09T04:28:33;95407.91;;;16.32
40047;BMP280;31510;48.122;11.576;2022-09-09T04:31:07;95390.78;;;16.30
40047;BMP280;31510;48.122;11.576;2022-09-09T04:33:34;95388.00;;;16.19
40047;BMP280;31510;48.122;11.576;2022-09-09T04:35:59;95386.50;;;16.12
40047;BMP280;31510;48.122;11.576;2022-09-09T04:38:25;95398.94;;;16.10
40047;BMP280;31510;48.122;11.576;2022-09-09T04:40:51;95396.25;;;16.10
40047;BMP280;31510;48.122;11.576;2022-09-09T04:43:19;95404.59;;;16.12
40047;BMP280;31510;48.122;11.576;2022-09-09T04:45:47;95399.69;;;16.10
40047;BMP280;31510;48.122;11.576;2022-09-09T04:48:13;95397.22;;;16.07
40047;BMP280;31510;48.122;11.576;2022-09-09T04:50:39;95396.69;;;16.03
40047;BMP280;31510;48.122;11.576;2022-09-09T04:53:06;95398.88;;;15.99
40047;BMP280;31510;48.122;11.576;2022-09-09T04:55:31;95395.19;;;15.97
40047;BMP280;31510;48.122;11.576;2022-09-09T04:57:57;95400.56;;;15.97
40047;BMP280;31510;48.122;11.576;2022-09-09T05:00:23;95395.66;;;15.95
40047;BMP280;31510;48.122;11.576;2022-09-09T05:02:49;95390.53;;;15.97
40047;BMP280;31510;48.122;11.576;2022-09-09T05:05:14;95398.34;;;15.95
40047;BMP280;31510;48.122;11.576;2022-09-09T05:07:40;95394.69;;;15.93
40047;BMP280;31510;48.122;11.576;2022-09-09T05:10:05;95404.44;;;15.90
40047;BMP280;31510;48.122;11.576;2022-09-09T05:12:31;95400.28;;;15.89
40047;BMP280;31510;48.122;11.576;2022-09-09T05:14:57;95411.28;;;15.91
40047;BMP280;31510;48.122;11.576;2022-09-09T05:17:23;95407.38;;;15.92
40047;BMP280;31510;48.122;11.576;2022-09-09T05:19:48;95413.50;;;15.93
40047;BMP280;31510;48.122;11.576;2022-09-09T05:22:18;95410.06;;;15.92
40047;BMP280;31510;48.122;11.576;2022-09-09T05:24:45;95413.72;;;15.89
40047;BMP280;31510;48.122;11.576;2022-09-09T05:27:11;95413.44;;;15.87
40047;BMP280;31510;48.122;11.576;2022-09-09T05:29:37;95411.72;;;15.84
40047;BMP280;31510;48.122;11.576;2022-09-09T05:32:03;95419.28;;;15.80
40047;BMP280;31510;48.122;11.576;2022-09-09T05:34:28;95409.25;;;15.81
40047;BMP280;31510;48.122;11.576;2022-09-09T05:36:54;95416.84;;;15.82
40047;BMP280;31510;48.122;11.576;2022-09-09T05:39:19;95414.16;;;15.82
40047;BMP280;31510;48.122;11.576;2022-09-09T05:41:44;95424.16;;;15.82
40047;BMP280;31510;48.122;11.576;2022-09-09T05:44:10;95425.91;;;15.85
40047;BMP280;31510;48.122;11.576;2022-09-09T05:46:35;95422.25;;;15.88
40047;BMP280;31510;48.122;11.576;2022-09-09T05:49:02;95419.34;;;15.91
40047;BMP280;31510;48.122;11.576;2022-09-09T05:51:29;95419.63;;;15.93
40047;BMP280;31510;48.122;11.576;2022-09-09T05:53:57;95418.88;;;15.93
40047;BMP280;31510;48.122;11.576;2022-09-09T05:56:27;95419.63;;;15.93
40047;BMP280;31510;48.122;11.576;2022-09-09T05:58:54;95418.13;;;15.92
40047;BMP280;31510;48.122;11.576;2022-09-09T06:01:22;95423.75;;;15.94
40047;BMP280;31510;48.122;11.576;2022-09-09T06:03:48;95434.81;;;15.96
40047;BMP280;31510;48.122;11.576;2022-09-09T06:06:17;95438.47;;;15.98
40047;BMP280;31510;48.122;11.576;2022-09-09T06:08:44;95439.72;;;16.03
40047;BMP280;31510;48.122;11.576;2022-09-09T06:13:37;95437.78;;;16.03
40047;BMP280;31510;48.122;11.576;2022-09-09T06:16:04;95427.75;;;16.04
40047;BMP280;31510;48.122;11.576;2022-09-09T06:18:30;95430.69;;;16.06
40047;BMP280;31510;48.122;11.576;2022-09-09T06:21:00;95427.06;;;16.09
40047;BMP280;31510;48.122;11.576;2022-09-09T06:23:26;95441.50;;;16.11
40047;BMP280;31510;48.122;11.576;2022-09-09T06:26:00;95431.00;;;16.13
40047;BMP280;31510;48.122;11.576;2022-09-09T06:28:25;95432.94;;;16.13
40047;BMP280;31510;48.122;11.576;2022-09-09T06:31:00;95431.25;;;16.15
40047;BMP280;31510;48.122;11.576;2022-09-09T06:33:26;95424.66;;;16.16
40047;BMP280;31510;48.122;11.576;2022-09-09T06:35:53;95426.16;;;16.17
40047;BMP280;31510;48.122;11.576;2022-09-09T06:38:18;95427.88;;;16.20
40047;BMP280;31510;48.122;11.576;2022-09-09T06:40:53;95431.31;;;16.21
40047;BMP280;31510;48.122;11.576;2022-09-09T06:43:23;95423.50;;;16.23
40047;BMP280;31510;48.122;11.576;2022-09-09T06:45:59;95432.09;;;16.27
40047;BMP280;31510;48.122;11.576;2022-09-09T06:48:25;95434.09;;;16.32
40047;BMP280;31510;48.122;11.576;2022-09-09T06:51:00;95437.28;;;16.36
40047;BMP280;31510;48.122;11.576;2022-09-09T06:53:25;95436.59;;;16.40
40047;BMP280;31510;48.122;11.576;2022-09-09T06:55:51;95442.47;;;16.44
40047;BMP280;31510;48.122;11.576;2022-09-09T06:58:16;95441.03;;;16.49
40047;BMP280;31510;48.122;11.576;2022-09-09T07:00:42;95445.91;;;16.50
40047;BMP280;31510;48.122;11.576;2022-09-09T07:03:07;95447.41;;;16.51
40047;BMP280;31510;48.122;11.576;2022-09-09T07:05:32;95444.47;;;16.55
40047;BMP280;31510;48.122;11.576;2022-09-09T07:07:58;95444.25;;;16.58
40047;BMP280;31510;48.122;11.576;2022-09-09T07:10:24;95443.06;;;16.59
40047;BMP280;31510;48.122;11.576;2022-09-09T07:12:53;95444.75;;;16.62
40047;BMP280;31510;48.122;11.576;2022-09-09T07:15:18;95435.47;;;16.63
40047;BMP280;31510;48.122;11.576;2022-09-09T07:17:44;95450.41;;;16.64
40047;BMP280;31510;48.122;11.576;2022-09-09T07:20:10;95455.06;;;16.64
40047;BMP280;31510;48.122;11.576;2022-09-09T07:22:36;95468.50;;;16.64
40047;BMP280;31510;48.122;11.576;2022-09-09T07:25:02;95493.47;;;16.64
40047;BMP280;31510;48.122;11.576;2022-09-09T07:27:27;95499.88;;;16.67
40047;BMP280;31510;48.122;11.576;2022-09-09T07:29:52;95487.59;;;16.66
40047;BMP280;31510;48.122;11.576;2022-09-09T07:32:19;95491.78;;;16.67
40047;BMP280;31510;48.122;11.576;2022-09-09T07:34:45;95492.50;;;16.67
40047;BMP280;31510;48.122;11.576;2022-09-09T07:37:12;95489.34;;;16.69
40047;BMP280;31510;48.122;11.576;2022-09-09T07:39:39;95487.88;;;16.73
40047;BMP280;31510;48.122;11.576;2022-09-09T07:42:04;95495.25;;;16.78
40047;BMP280;31510;48.122;11.576;2022-09-09T07:44:30;95499.94;;;16.83
40047;BMP280;31510;48.122;11.576;2022-09-09T07:46:59;95498.75;;;16.89
40047;BMP280;31510;48.122;11.576;2022-09-09T07:49:25;95510.75;;;16.94
40047;BMP280;31510;48.122;11.576;2022-09-09T07:51:50;95507.59;;;16.95
40047;BMP280;31510;48.122;11.576;2022-09-09T07:54:18;95499.28;;;16.99
40047;BMP280;31510;48.122;11.576;2022-09-09T07:56:49;95512.03;;;17.04
40047;BMP280;31510;48.122;11.576;2022-09-09T07:59:14;95513.78;;;17.07
40047;BMP280;31510;48.122;11.576;2022-09-09T08:01:49;95517.19;;;17.07
40047;BMP280;31510;48.122;11.576;2022-09-09T08:04:19;95502.75;;;17.10
40047;BMP280;31510;48.122;11.576;2022-09-09T08:06:50;95496.41;;;17.13
40047;BMP280;31510;48.122;11.576;2022-09-09T08:09:18;95498.88;;;17.17
40047;BMP280;31510;48.122;11.576;2022-09-09T08:11:44;95500.63;;;17.19
40047;BMP280;31510;48.122;11.576;2022-09-09T08:14:10;95503.09;;;17.23
40047;BMP280;31510;48.122;11.576;2022-09-09T08:16:39;95518.78;;;17.24
40047;BMP280;31510;48.122;11.576;2022-09-09T08:19:05;95528.56;;;17.27
40047;BMP280;31510;48.122;11.576;2022-09-09T08:21:33;95533.00;;;17.30
40047;BMP280;31510;48.122;11.576;2022-09-09T08:24:00;95531.78;;;17.31
40047;BMP280;31510;48.122;11.576;2022-09-09T08:26:31;95527.38;;;17.34
40047;BMP280;31510;48.122;11.576;2022-09-09T08:28:59;95525.66;;;17.36
40047;BMP280;31510;48.122;11.576;2022-09-09T08:31:35;95534.03;;;17.38
40047;BMP280;31510;48.122;11.576;2022-09-09T08:34:03;95524.47;;;17.43
40047;BMP280;31510;48.122;11.576;2022-09-09T08:36:30;95537.97;;;17.48
40047;BMP280;31510;48.122;11.576;2022-09-09T08:38:58;95531.84;;;17.53
40047;BMP280;31510;48.122;11.576;2022-09-09T08:44:26;95548.03;;;17.58
40047;BMP280;31510;48.122;11.576;2022-09-09T08:55:28;95540.69;;;17.59
40047;BMP280;31510;48.122;11.576;2022-09-09T08:58:04;95535.53;;;17.61
40047;BMP280;31510;48.122;11.576;2022-09-09T09:00:40;95528.69;;;17.60
40047;BMP280;31510;48.122;11.576;2022-09-09T09:03:17;95534.06;;;17.60
40047;BMP280;31510;48.122;11.576;2022-09-09T09:11:53;95527.72;;;17.63
40047;BMP280;31510;48.122;11.576;2022-09-09T09:14:20;95530.41;;;17.63
40047;BMP280;31510;48.122;11.576;2022-09-09T09:19:15;95534.31;;;17.57
40047;BMP280;31510;48.122;11.576;2022-09-09T09:21:43;95535.53;;;17.56
40047;BMP280;31510;48.122;11.576;2022-09-09T09:27:15;95543.13;;;17.62
40047;BMP280;31510;48.122;11.576;2022-09-09T09:29:42;95537.25;;;17.64
40047;BMP280;31510;48.122;11.576;2022-09-09T09:32:12;95530.19;;;17.66
40047;BMP280;31510;48.122;11.576;2022-09-09T09:34:39;95538.75;;;17.70
40047;BMP280;31510;48.122;11.576;2022-09-09T09:37:23;95538.28;;;17.77
40047;BMP280;31510;48.122;11.576;2022-09-09T09:39:52;95537.06;;;17.84
40047;BMP280;31510;48.122;11.576;2022-09-09T09:42:18;95543.69;;;17.88
40047;BMP280;31510;48.122;11.576;2022-09-09T09:44:44;95539.28;;;17.91
40047;BMP280;31510;48.122;11.576;2022-09-09T09:47:19;95539.28;;;17.96
40047;BMP280;31510;48.122;11.576;2022-09-09T09:49:56;95539.03;;;17.99
40047;BMP280;31510;48.122;11.576;2022-09-09T09:52:26;95543.97;;;18.01
40047;BMP280;31510;48.122;11.576;2022-09-09T09:54:53;95542.50;;;18.00
40047;BMP280;31510;48.122;11.576;2022-09-09T09:57:24;95552.06;;;18.01
40047;BMP280;31510;48.122;11.576;2022-09-09T10:00:03;95553.53;;;18.02
40047;BMP280;31510;48.122;11.576;2022-09-09T10:02:37;95548.88;;;18.02
40047;BMP280;31510;48.122;11.576;2022-09-09T10:05:13;95553.06;;;18.03
40047;BMP280;31510;48.122;11.576;2022-09-09T10:07:39;95546.41;;;18.04
40047;BMP280;31510;48.122;11.576;2022-09-09T10:10:05;95539.56;;;18.03
40047;BMP280;31510;48.122;11.576;2022-09-09T10:12:50;95539.03;;;17.99
40047;BMP280;31510;48.122;11.576;2022-09-09T10:21:00;95539.03;;;17.94
40047;BMP280;31510;48.122;11.576;2022-09-09T10:31:53;95552.50;;;17.83
40047;BMP280;31510;48.122;11.576;2022-09-09T10:40:02;95544.41;;;17.78
40047;BMP280;31510;48.122;11.576;2022-09-09T10:42:34;95547.09;;;17.78
40047;BMP280;31510;48.122;11.576;2022-09-09T10:50:29;95549.56;;;17.76
40047;BMP280;31510;48.122;11.576;2022-09-09T10:55:27;95549.81;;;17.78
40047;BMP280;31510;48.122;11.576;2022-09-09T10:57:59;95553.22;;;17.78
40047;BMP280;31510;48.122;11.576;2022-09-09T11:00:38;95541.97;;;17.80
40047;BMP280;31510;48.122;11.576;2022-09-09T11:03:05;95547.34;;;17.80
40047;BMP280;31510;48.122;11.576;2022-09-09T11:05:42;95534.88;;;17.82
40047;BMP280;31510;48.122;11.576;2022-09-09T11:08:15;95545.91;;;17.90
40047;BMP280;31510;48.122;11.576;2022-09-09T11:10:48;95551.56;;;17.92
40047;BMP280;31510;48.122;11.576;2022-09-09T11:13:39;95547.66;;;17.98
40047;BMP280;31510;48.122;11.576;2022-09-09T11:16:17;95547.13;;;18.05
40047;BMP280;31510;48.122;11.576;2022-09-09T11:18:46;95554.06;;;18.11
40047;BMP280;31510;48.122;11.576;2022-09-09T11:21:22;95544.25;;;18.19
40047;BMP280;31510;48.122;11.576;2022-09-09T11:23:54;95541.81;;;18.21
40047;BMP280;31510;48.122;11.576;2022-09-09T11:26:30;95533.72;;;18.27
40047;BMP280;31510;48.122;11.576;2022-09-09T11:32:38;95534.91;;;18.37
40047;BMP280;31510;48.122;11.576;2022-09-09T11:40:39;95532.94;;;18.59
40047;BMP280;31510;48.122;11.576;2022-09-09T11:43:13;95537.59;;;18.64
40047;BMP280;31510;48.122;11.576;2022-09-09T11:45:41;95529.03;;;18.65
40047;BMP280;31510;48.122;11.576;2022-09-09T11:48:31;95526.09;;;18.63
40047;BMP280;31510;48.122;11.576;2022-09-09T11:51:08;95533.94;;;18.61
40047;BMP280;31510;48.122;11.576;2022-09-09T11:53:35;95527.78;;;18.66
40047;BMP280;31510;48.122;11.576;2022-09-09T11:56:13;95521.88;;;18.68
40047;BMP280;31510;48.122;11.576;2022-09-09T11:58:42;95531.47;;;18.69
40047;BMP280;31510;48.122;11.576;2022-09-09T12:04:14;95530.47;;;18.66
40047;BMP280;31510;48.122;11.576;2022-09-09T12:06:50;95532.19;;;18.69
40047;BMP280;31510;48.122;11.576;2022-09-09T12:09:29;95536.88;;;18.69
40047;BMP280;31510;48.122;11.576;2022-09-09T12:19:41;95531.44;;;18.85
40047;BMP280;31510;48.122;11.576;2022-09-09T12:22:27;95524.03;;;18.91
40047;BMP280;31510;48.122;11.576;2022-09-09T12:25:40;95532.16;;;18.91
40047;BMP280;31510;48.122;11.576;2022-09-09T12:31:08;95520.34;;;18.94
40047;BMP280;31510;48.122;11.576;2022-09-09T12:33:37;95517.16;;;18.95
40047;BMP280;31510;48.122;11.576;2022-09-09T12:36:03;95514.25;;;18.99
40047;BMP280;31510;48.122;11.576;2022-09-09T12:38:34;95511.28;;;19.02
40047;BMP280;31510;48.122;11.576;2022-09-09T12:40:59;95507.59;;;19.05
40047;BMP280;31510;48.122;11.576;2022-09-09T12:43:27;95495.78;;;19.08
40047;BMP280;31510;48.122;11.576;2022-09-09T12:46:01;95503.38;;;19.15
40047;BMP280;31510;48.122;11.576;2022-09-09T12:48:37;95506.03;;;19.20
40047;BMP280;31510;48.122;11.576;2022-09-09T12:51:05;95499.88;;;19.25
40047;BMP280;31510;48.122;11.576;2022-09-09T12:53:35;95500.59;;;19.31
40047;BMP280;31510;48.122;11.576;2022-09-09T12:56:07;95497.63;;;19.35
40047;BMP280;31510;48.122;11.576;2022-09-09T12:58:33;95495.91;;;19.37
40047;BMP280;31510;48.122;11.576;2022-09-09T13:01:00;95488.75;;;19.40
40047;BMP280;31510;48.122;11.576;2022-09-09T13:03:26;95483.84;;;19.38
40047;BMP280;31510;48.122;11.576;2022-09-09T13:05:53;95478.47;;;19.33
40047;BMP280;31510;48.122;11.576;2022-09-09T13:08:18;95485.13;;;19.32
40047;BMP280;31510;48.122;11.576;2022-09-09T13:10:51;95485.13;;;19.32
40047;BMP280;31510;48.122;11.576;2022-09-09T13:13:42;95478.22;;;19.31
40047;BMP280;31510;48.122;11.576;2022-09-09T13:16:25;95473.84;;;19.28
40047;BMP280;31510;48.122;11.576;2022-09-09T13:18:51;95472.84;;;19.25
40047;BMP280;31510;48.122;11.576;2022-09-09T13:21:18;95477.03;;;19.26
40047;BMP280;31510;48.122;11.576;2022-09-09T13:23:49;95466.97;;;19.21
40047;BMP280;31510;48.122;11.576;2022-09-09T13:26:26;95468.69;;;19.19
40047;BMP280;31510;48.122;11.576;2022-09-09T13:28:53;95463.81;;;19.18
40047;BMP280;31510;48.122;11.576;2022-09-09T13:31:24;95467.97;;;19.19
40047;BMP280;31510;48.122;11.576;2022-09-09T13:33:53;95459.63;;;19.17
40047;BMP280;31510;48.122;11.576;2022-09-09T13:36:29;95457.19;;;19.13
40047;BMP280;31510;48.122;11.576;2022-09-09T13:38:56;95459.88;;;19.13
40047;BMP280;31510;48.122;11.576;2022-09-09T13:41:29;95455.22;;;19.14
40047;BMP280;31510;48.122;11.576;2022-09-09T13:43:56;95452.03;;;19.10
40047;BMP280;31510;48.122;11.576;2022-09-09T13:49:01;95464.34;;;19.05
40047;BMP280;31510;48.122;11.576;2022-09-09T13:51:35;95450.59;;;19.03
40047;BMP280;31510;48.122;11.576;2022-09-09T13:54:02;95448.91;;;19.00
40047;BMP280;31510;48.122;11.576;2022-09-09T13:56:27;95438.81;;;18.95
40047;BMP280;31510;48.122;11.576;2022-09-09T13:58:54;95444.72;;;18.94
40047;BMP280;31510;48.122;11.576;2022-09-09T14:01:19;95444.47;;;18.92
40047;BMP280;31510;48.122;11.576;2022-09-09T14:03:44;95445.22;;;18.87
40047;BMP280;31510;48.122;11.576;2022-09-09T14:06:10;95445.25;;;18.81
40047;BMP280;31510;48.122;11.576;2022-09-09T14:08:36;95444.06;;;18.77
40047;BMP280;31510;48.122;11.576;2022-09-09T14:11:05;95445.75;;;18.75
40047;BMP280;31510;48.122;11.576;2022-09-09T14:13:30;95442.59;;;18.71
40047;BMP280;31510;48.122;11.576;2022-09-09T14:15:56;95437.91;;;18.71
40047;BMP280;31510;48.122;11.576;2022-09-09T14:18:21;95443.81;;;18.70
40047;BMP280;31510;48.122;11.576;2022-09-09T14:20:48;95449.97;;;18.70
40047;BMP280;31510;48.122;11.576;2022-09-09T14:23:15;95449.22;;;18.70
40047;BMP280;31510;48.122;11.576;2022-09-09T14:25:42;95446.28;;;18.68
40047;BMP280;31510;48.122;11.576;2022-09-09T14:28:10;95448.00;;;18.65
40047;BMP280;31510;48.122;11.576;2022-09-09T14:30:37;95454.38;;;18.68
40047;BMP280;31510;48.122;11.576;2022-09-09T14:33:02;95460.75;;;18.70
40047;BMP280;31510;48.122;11.576;2022-09-09T14:35:28;95456.59;;;18.69
40047;BMP280;31510;48.122;11.576;2022-09-09T14:37:53;95456.59;;;18.64
40047;BMP280;31510;48.122;11.576;2022-09-09T14:40:20;95469.63;;;18.60
40047;BMP280;31510;48.122;11.576;2022-09-09T14:42:45;95462.28;;;18.55
40047;BMP280;31510;48.122;11.576;2022-09-09T14:45:11;95462.28;;;18.55
40047;BMP280;31510;48.122;11.576;2022-09-09T14:47:36;95462.28;;;18.55
40047;BMP280;31510;48.122;11.576;2022-09-09T14:50:04;95466.44;;;18.56
40047;BMP280;31510;48.122;11.576;2022-09-09T14:52:30;95471.56;;;18.59
40047;BMP280;31510;48.122;11.576;2022-09-09T14:54:56;95469.13;;;18.61
40047;BMP280;31510;48.122;11.576;2022-09-09T14:57:22;95472.59;;;18.56
40047;BMP280;31510;48.122;11.576;2022-09-09T14:59:47;95469.13;;;18.56
40047;BMP280;31510;48.122;11.576;2022-09-09T15:02:14;95473.31;;;18.57
40047;BMP280;31510;48.122;11.576;2022-09-09T15:04:39;95465.69;;;18.55
40047;BMP280;31510;48.122;11.576;2022-09-09T15:07:04;95462.28;;;18.55
40047;BMP280;31510;48.122;11.576;2022-09-09T15:09:30;95465.69;;;18.55
40047;BMP280;31510;48.122;11.576;2022-09-09T15:11:55;95465.94;;;18.57
40047;BMP280;31510;48.122;11.576;2022-09-09T15:14:20;95460.53;;;18.57
40047;BMP280;31510;48.122;11.576;2022-09-09T15:16:46;95458.31;;;18.56
40047;BMP280;31510;48.122;11.576;2022-09-09T15:19:11;95463.25;;;18.52
40047;BMP280;31510;48.122;11.576;2022-09-09T15:21:37;95463.97;;;18.52
40047;BMP280;31510;48.122;11.576;2022-09-09T15:24:04;95462.53;;;18.51
40047;BMP280;31510;48.122;11.576;2022-09-09T15:26:29;95457.63;;;18.50
40047;BMP280;31510;48.122;11.576;2022-09-09T15:28:55;95459.59;;;18.49
40047;BMP280;31510;48.122;11.576;2022-09-09T15:31:29;95449.75;;;18.46
40047;BMP280;31510;48.122;11.576;2022-09-09T15:34:03;95452.94;;;18.45
40047;BMP280;31510;48.122;11.576;2022-09-09T15:36:36;95443.16;;;18.47
40047;BMP280;31510;48.122;11.576;2022-09-09T15:39:04;95441.19;;;18.48
40047;BMP280;31510;48.122;11.576;2022-09-09T15:41:30;95443.88;;;18.48
40047;BMP280;31510;48.122;11.576;2022-09-09T15:43:57;95438.22;;;18.46
40047;BMP280;31510;48.122;11.576;2022-09-09T15:49:11;95436.03;;;18.44
40047;BMP280;31510;48.122;11.576;2022-09-09T15:51:38;95423.25;;;18.45
40047;BMP280;31510;48.122;11.576;2022-09-09T15:54:04;95427.69;;;18.42
40047;BMP280;31510;48.122;11.576;2022-09-09T15:56:30;95426.44;;;18.43
40047;BMP280;31510;48.122;11.576;2022-09-09T15:58:56;95428.41;;;18.48
40047;BMP280;31510;48.122;11.576;2022-09-09T16:01:23;95433.06;;;18.48